createdAt,value
2022-08-18T00:00:37.516Z,15.94
2022-08-18T00:03:55.484Z,15.96
2022-08-18T00:07:00.431Z,16.01
2022-08-18T00:10:01.970Z,16.04
2022-08-18T00:13:03.357Z,16.00
2022-08-18T00:16:04.718Z,15.97
2022-08-18T00:19:09.366Z,15.89
2022-08-18T00:22:14.592Z,15.92
2022-08-18T00:25:16.971Z,15.93
2022-08-18T00:28:19.359Z,15.85
2022-08-18T00:31:26.916Z,15.89
2022-08-18T00:34:28.298Z,15.94
2022-08-18T00:37:33.749Z,16.00
2022-08-18T00:40:38.262Z,15.98
2022-08-18T00:43:42.235Z,15.99
2022-08-18T00:46:43.688Z,15.85
2022-08-18T00:49:45.049Z,15.78
2022-08-18T00:52:48.302Z,15.75
2022-08-18T00:55:53.790Z,15.72
2022-08-18T00:58:57.884Z,15.72
2022-08-18T01:02:03.716Z,15.71
2022-08-18T01:05:20.494Z,15.65
2022-08-18T01:08:29.135Z,15.64
2022-08-18T01:11:30.705Z,15.69
2022-08-18T01:14:32.076Z,15.67
2022-08-18T01:17:52.177Z,15.63
2022-08-18T01:21:24.662Z,15.60
2022-08-18T01:24:52.544Z,15.55
2022-08-18T01:27:56.763Z,15.59
2022-08-18T01:31:02.243Z,15.61
2022-08-18T01:34:04.584Z,15.68
2022-08-18T01:37:06.436Z,15.64
2022-08-18T01:41:12.840Z,15.61
2022-08-18T01:43:29.976Z,15.52
2022-08-18T01:46:33.622Z,15.58
2022-08-18T01:49:34.992Z,15.53
2022-08-18T01:52:36.434Z,15.50
2022-08-18T01:55:38.359Z,15.55
2022-08-18T01:58:39.813Z,15.59
2022-08-18T02:01:48.501Z,15.65
2022-08-18T02:04:52.963Z,15.66
2022-08-18T02:07:54.622Z,15.56
2022-08-18T02:10:58.715Z,15.64
2022-08-18T02:14:00.089Z,15.70
2022-08-18T02:17:02.423Z,15.71
2022-08-18T02:20:04.438Z,15.68
2022-08-18T02:23:06.872Z,15.67
2022-08-18T02:26:08.763Z,15.67
2022-08-18T02:29:10.176Z,15.69
2022-08-18T02:32:11.560Z,15.72
2022-08-18T02:35:12.947Z,15.72
2022-08-18T02:38:14.305Z,15.76
2022-08-18T02:41:20.243Z,15.74
2022-08-18T02:44:21.635Z,15.73
2022-08-18T02:47:23.069Z,15.72
2022-08-18T02:50:24.954Z,15.67
2022-08-18T02:53:27.299Z,15.65
2022-08-18T02:56:41.484Z,15.65
2022-08-18T02:59:47.412Z,15.61
2022-08-18T03:02:51.369Z,15.51
2022-08-18T03:05:52.720Z,15.49
2022-08-18T03:08:54.384Z,15.50
2022-08-18T03:11:55.708Z,15.53
2022-08-18T03:14:57.063Z,15.57
2022-08-18T03:17:58.468Z,15.57
2022-08-18T03:21:07.630Z,15.57
2022-08-18T03:24:10.676Z,15.59
2022-08-18T03:27:12.792Z,15.59
2022-08-18T03:30:14.149Z,15.58
2022-08-18T03:33:15.551Z,15.50
2022-08-18T03:36:26.927Z,15.44
2022-08-18T03:39:28.395Z,15.40
2022-08-18T03:42:29.872Z,15.34
2022-08-18T03:45:31.932Z,15.36
2022-08-18T03:48:33.613Z,15.36
2022-08-18T03:51:35.066Z,15.37
2022-08-18T03:54:38.892Z,15.44
2022-08-18T03:57:40.302Z,15.41
2022-08-18T04:00:41.683Z,15.36
2022-08-18T04:03:43.594Z,15.42
2022-08-18T04:06:45.876Z,15.44
2022-08-18T04:09:47.249Z,15.40
2022-08-18T04:12:48.598Z,15.41
2022-08-18T04:15:49.978Z,15.33
2022-08-18T04:18:51.353Z,15.40
2022-08-18T04:21:53.387Z,15.44
2022-08-18T04:24:55.640Z,15.47
2022-08-18T04:28:01.351Z,15.47
2022-08-18T04:31:09.336Z,15.53
2022-08-18T04:34:12.393Z,15.51
2022-08-18T04:37:15.403Z,15.49
2022-08-18T04:40:20.211Z,15.51
2022-08-18T04:43:24.227Z,15.53
2022-08-18T04:46:26.076Z,15.55
2022-08-18T04:49:27.500Z,15.48
2022-08-18T04:52:47.810Z,15.52
2022-08-18T04:55:52.397Z,15.46
2022-08-18T04:58:53.824Z,15.35
2022-08-18T05:01:55.175Z,15.31
2022-08-18T05:04:56.532Z,15.43
2022-08-18T05:07:57.998Z,15.49
2022-08-18T05:11:03.820Z,15.49
2022-08-18T05:14:07.155Z,15.49
2022-08-18T05:17:08.913Z,15.47
2022-08-18T05:20:10.433Z,15.47
2022-08-18T05:23:12.482Z,15.49
2022-08-18T05:26:14.622Z,15.48
2022-08-18T05:29:18.878Z,15.46
2022-08-18T05:32:37.135Z,15.38
2022-08-18T05:35:43.450Z,15.49
2022-08-18T05:38:47.991Z,15.48
2022-08-18T05:42:07.391Z,15.43
2022-08-18T05:45:12.878Z,15.45
2022-08-18T05:48:14.245Z,15.47
2022-08-18T05:51:25.315Z,15.49
2022-08-18T05:54:46.568Z,15.52
2022-08-18T05:57:51.611Z,15.55
2022-08-18T06:00:59.612Z,15.53
2022-08-18T06:04:01.627Z,15.53
2022-08-18T06:07:04.080Z,15.48
2022-08-18T06:10:06.488Z,15.53
2022-08-18T06:13:08.029Z,15.63
2022-08-18T06:16:09.313Z,15.67
2022-08-18T06:19:30.937Z,15.71
2022-08-18T06:22:55.321Z,15.68
2022-08-18T06:26:16.704Z,15.65
2022-08-18T06:29:24.915Z,15.75
2022-08-18T06:32:29.318Z,15.72
2022-08-18T06:35:38.179Z,15.78
2022-08-18T06:38:39.573Z,15.86
2022-08-18T06:41:49.038Z,15.90
2022-08-18T06:44:54.989Z,15.94
2022-08-18T06:47:59.543Z,15.98
2022-08-18T06:51:01.478Z,16.05
2022-08-18T06:54:07.045Z,16.10
2022-08-18T06:57:08.403Z,16.13
2022-08-18T07:00:20.215Z,16.18
2022-08-18T07:03:22.509Z,16.18
2022-08-18T07:06:25.009Z,16.26
2022-08-18T07:09:27.665Z,16.26
2022-08-18T07:12:32.839Z,16.28
2022-08-18T07:15:34.515Z,16.35
2022-08-18T07:18:36.111Z,16.37
2022-08-18T07:21:38.104Z,16.32
2022-08-18T07:24:44.072Z,16.37
2022-08-18T07:27:47.903Z,16.37
2022-08-18T07:31:13.581Z,16.43
2022-08-18T07:34:12.544Z,16.40
2022-08-18T07:37:13.901Z,16.35
2022-08-18T07:40:28.567Z,16.26
2022-08-18T07:43:38.180Z,16.20
2022-08-18T07:46:50.349Z,16.30
2022-08-18T07:50:18.247Z,16.31
2022-08-18T07:53:37.498Z,16.48
2022-08-18T07:56:50.148Z,16.69
2022-08-18T07:59:54.601Z,16.75
2022-08-18T08:02:55.959Z,16.64
2022-08-18T08:06:03.424Z,16.97
2022-08-18T08:09:07.581Z,17.11
2022-08-18T08:12:08.899Z,17.27
2022-08-18T08:15:26.723Z,17.42
2022-08-18T08:18:47.459Z,17.69
2022-08-18T08:21:53.061Z,17.65
2022-08-18T08:24:54.714Z,17.60
2022-08-18T08:28:07.333Z,17.77
2022-08-18T08:31:35.626Z,17.81
2022-08-18T08:34:46.039Z,17.76
2022-08-18T08:37:47.385Z,17.80
2022-08-18T08:40:56.887Z,17.80
2022-08-18T08:43:58.165Z,17.91
2022-08-18T08:47:07.901Z,18.13
2022-08-18T08:50:11.381Z,18.07
2022-08-18T08:53:26.787Z,17.76
2022-08-18T08:56:29.829Z,17.76
2022-08-18T08:59:31.182Z,17.65
2022-08-18T09:02:48.163Z,17.63
2022-08-18T09:06:00.876Z,17.69
2022-08-18T09:09:08.292Z,17.59
2022-08-18T09:12:15.774Z,17.72
2022-08-18T09:15:35.567Z,17.93
2022-08-18T09:18:44.892Z,17.92
2022-08-18T09:22:00.533Z,17.83
2022-08-18T09:25:02.351Z,17.82
2022-08-18T09:28:10.903Z,17.75
2022-08-18T09:31:19.560Z,17.73
2022-08-18T09:34:47.478Z,17.68
2022-08-18T09:38:12.275Z,17.60
2022-08-18T09:41:32.463Z,17.66
2022-08-18T09:44:46.561Z,17.80
2022-08-18T09:47:54.080Z,17.74
2022-08-18T09:51:01.417Z,17.80
2022-08-18T09:54:07.873Z,17.85
2022-08-18T09:57:16.495Z,17.71
2022-08-18T10:00:28.526Z,17.73
2022-08-18T10:03:31.030Z,17.77
2022-08-18T10:06:32.831Z,17.77
2022-08-18T10:09:43.980Z,17.73
2022-08-18T10:13:01.624Z,17.75
2022-08-18T10:16:10.983Z,17.75
2022-08-18T10:19:34.069Z,17.71
2022-08-18T10:22:46.615Z,17.65
2022-08-18T10:29:12.924Z,17.83
2022-08-18T10:32:14.394Z,17.85
2022-08-18T10:35:34.155Z,17.76
2022-08-18T10:38:37.363Z,17.72
2022-08-18T10:41:47.096Z,17.86
2022-08-18T10:44:48.692Z,18.01
2022-08-18T10:47:59.087Z,17.96
2022-08-18T10:51:01.057Z,18.06
2022-08-18T10:54:02.355Z,18.09
2022-08-18T10:57:13.156Z,18.22
2022-08-18T11:00:20.185Z,18.31
2022-08-18T11:03:50.674Z,18.27
2022-08-18T11:06:43.971Z,18.30
2022-08-18T11:09:57.129Z,18.26
2022-08-18T11:13:03.085Z,18.22
2022-08-18T11:16:13.382Z,18.15
2022-08-18T11:19:16.828Z,18.13
2022-08-18T11:22:31.132Z,17.97
2022-08-18T11:25:35.319Z,17.96
2022-08-18T11:28:40.740Z,17.89
2022-08-18T11:31:52.826Z,17.94
2022-08-18T11:34:57.930Z,17.85
2022-08-18T11:38:00.289Z,17.88
2022-08-18T11:41:13.777Z,17.85
2022-08-18T11:44:18.302Z,17.90
2022-08-18T11:47:27.570Z,17.86
2022-08-18T11:50:30.832Z,17.85
2022-08-18T11:53:33.265Z,17.92
2022-08-18T11:56:38.091Z,17.97
2022-08-18T11:59:54.813Z,17.98
2022-08-18T12:03:28.414Z,17.97
2022-08-18T12:06:30.679Z,17.88
2022-08-18T12:12:59.691Z,17.87
2022-08-18T12:16:09.614Z,17.91
2022-08-18T12:19:12.429Z,17.92
2022-08-18T12:22:20.870Z,17.94
2022-08-18T12:25:24.653Z,17.97
2022-08-18T12:28:28.396Z,17.96
2022-08-18T12:31:42.632Z,18.02
2022-08-18T12:34:49.557Z,18.03
2022-08-18T12:38:11.177Z,18.12
2022-08-18T12:41:19.870Z,18.14
2022-08-18T12:44:27.118Z,18.04
2022-08-18T12:47:31.325Z,18.13
2022-08-18T12:50:37.836Z,18.13
2022-08-18T12:53:58.368Z,18.04
2022-08-18T12:57:01.761Z,18.08
2022-08-18T13:00:04.255Z,18.13
2022-08-18T13:03:05.656Z,18.19
2022-08-18T13:06:07.090Z,18.33
2022-08-18T13:09:33.979Z,18.34
2022-08-18T13:12:30.779Z,18.40
2022-08-18T13:15:33.381Z,18.39
2022-08-18T13:18:35.331Z,18.55
2022-08-18T13:21:40.841Z,18.49
2022-08-18T13:24:42.908Z,18.53
2022-08-18T13:27:45.296Z,18.56
2022-08-18T13:30:46.754Z,18.66
2022-08-18T13:33:57.050Z,18.87
2022-08-18T13:37:01.326Z,18.95
2022-08-18T13:40:04.122Z,19.06
2022-08-18T13:43:09.218Z,19.13
2022-08-18T13:46:11.406Z,19.26
2022-08-18T13:49:13.350Z,19.35
2022-08-18T13:52:33.515Z,19.40
2022-08-18T13:55:36.931Z,19.52
2022-08-18T13:58:38.501Z,19.58
2022-08-18T14:01:55.019Z,19.51
2022-08-18T14:04:57.787Z,19.41
2022-08-18T14:07:59.532Z,19.47
2022-08-18T14:11:01.224Z,19.47
2022-08-18T14:14:02.652Z,19.48
2022-08-18T14:17:04.075Z,19.44
2022-08-18T14:20:27.763Z,19.46
2022-08-18T14:23:53.142Z,19.35
2022-08-18T14:26:54.800Z,19.27
2022-08-18T14:30:01.340Z,19.23
2022-08-18T14:33:04.904Z,19.30
2022-08-18T14:36:09.846Z,19.23
2022-08-18T14:39:11.478Z,19.18
2022-08-18T14:42:14.361Z,19.05
2022-08-18T14:45:17.896Z,18.95
2022-08-18T14:48:29.475Z,18.97
2022-08-18T14:51:31.178Z,18.95
2022-08-18T14:54:34.863Z,18.92
2022-08-18T14:57:37.213Z,18.93
2022-08-18T15:00:53.285Z,18.91
2022-08-18T15:03:56.116Z,18.95
2022-08-18T15:06:57.852Z,18.94
2022-08-18T15:10:14.924Z,18.95
2022-08-18T15:13:18.122Z,19.01
2022-08-18T15:16:19.605Z,19.03
2022-08-18T15:19:58.335Z,19.08
2022-08-18T15:23:03.076Z,19.11
2022-08-18T15:26:05.649Z,19.15
2022-08-18T15:29:10.746Z,19.28
2022-08-18T15:32:16.913Z,19.35
2022-08-18T15:35:19.414Z,19.43
2022-08-18T15:38:21.489Z,19.46
2022-08-18T15:41:35.682Z,19.39
2022-08-18T15:44:47.236Z,19.47
2022-08-18T15:47:54.683Z,19.49
2022-08-18T15:51:11.703Z,19.45
2022-08-18T15:54:13.668Z,19.39
2022-08-18T15:57:39.851Z,19.48
2022-08-18T16:00:38.333Z,19.51
2022-08-18T16:03:39.733Z,19.49
2022-08-18T16:06:45.154Z,19.39
2022-08-18T16:09:47.070Z,19.52
2022-08-18T16:12:48.492Z,19.51
2022-08-18T16:15:50.299Z,19.53
2022-08-18T16:18:51.987Z,19.61
2022-08-18T16:21:54.659Z,19.61
2022-08-18T16:24:56.024Z,19.62
2022-08-18T16:28:00.423Z,19.44
2022-08-18T16:31:02.446Z,19.62
2022-08-18T16:34:03.855Z,19.61
2022-08-18T16:37:05.247Z,19.76
2022-08-18T16:40:08.216Z,19.76
2022-08-18T16:43:10.490Z,19.89
2022-08-18T16:46:12.660Z,19.89
2022-08-18T16:49:14.792Z,19.82
2022-08-18T16:52:16.289Z,19.83
2022-08-18T16:55:19.428Z,19.81
2022-08-18T16:58:39.479Z,19.74
2022-08-18T17:01:59.624Z,19.67
2022-08-18T17:05:02.645Z,19.68
2022-08-18T17:08:04.002Z,19.60
2022-08-18T17:11:05.779Z,19.59
2022-08-18T17:14:07.599Z,19.59
2022-08-18T17:17:08.982Z,19.52
2022-08-18T17:20:11.042Z,19.46
2022-08-18T17:23:12.878Z,19.43
2022-08-18T17:26:20.475Z,19.21
2022-08-18T17:29:34.264Z,19.00
2022-08-18T17:32:46.839Z,18.92
2022-08-18T17:35:48.209Z,18.77
2022-08-18T17:38:51.788Z,18.67
2022-08-18T17:42:11.931Z,18.66
2022-08-18T17:45:21.594Z,18.75
2022-08-18T17:48:35.050Z,18.75
2022-08-18T17:51:46.536Z,18.75
2022-08-18T17:54:51.055Z,18.75
2022-08-18T17:58:01.610Z,18.69
2022-08-18T18:01:04.190Z,18.69
2022-08-18T18:04:05.539Z,18.61
2022-08-18T18:07:07.618Z,18.59
2022-08-18T18:10:10.708Z,18.60
2022-08-18T18:13:13.567Z,18.58
2022-08-18T18:16:21.088Z,18.56
2022-08-18T18:19:23.529Z,18.53
2022-08-18T18:22:26.516Z,18.52
2022-08-18T18:25:34.939Z,18.38
2022-08-18T18:28:37.591Z,18.32
2022-08-18T18:31:39.735Z,18.39
2022-08-18T18:34:44.538Z,18.38
2022-08-18T18:37:47.264Z,18.29
2022-08-18T18:41:21.412Z,18.31
2022-08-18T18:44:26.799Z,18.22
2022-08-18T18:47:33.023Z,18.20
2022-08-18T18:50:55.892Z,18.19
2022-08-18T18:54:06.154Z,18.22
2022-08-18T18:57:12.568Z,18.23
2022-08-18T19:00:19.771Z,18.25
2022-08-18T19:03:40.859Z,18.26
2022-08-18T19:06:46.947Z,18.22
2022-08-18T19:09:54.087Z,18.26
2022-08-18T19:12:57.238Z,18.19
2022-08-18T19:15:59.537Z,18.22
2022-08-18T19:19:35.371Z,18.25
2022-08-18T19:22:54.506Z,18.20
2022-08-18T19:25:56.340Z,18.14
2022-08-18T19:29:13.318Z,18.13
2022-08-18T19:32:20.273Z,18.16
2022-08-18T19:35:35.318Z,18.16
2022-08-18T19:38:46.415Z,18.10
2022-08-18T19:41:51.027Z,18.02
2022-08-18T19:45:17.230Z,17.97
2022-08-18T19:48:19.535Z,17.99
2022-08-18T19:51:27.077Z,17.97
2022-08-18T19:54:48.511Z,17.99
2022-08-18T19:57:54.057Z,17.92
2022-08-18T20:00:57.464Z,17.95
2022-08-18T20:04:02.722Z,17.93
2022-08-18T20:07:04.406Z,17.93
2022-08-18T20:10:06.020Z,17.92
2022-08-18T20:13:14.293Z,17.93
2022-08-18T20:16:24.973Z,17.92
2022-08-18T20:19:39.580Z,17.93
2022-08-18T20:22:44.444Z,17.86
2022-08-18T20:25:46.976Z,17.84
2022-08-18T20:28:48.332Z,17.81
2022-08-18T20:31:49.733Z,17.82
2022-08-18T20:34:51.552Z,17.86
2022-08-18T20:37:53.313Z,17.84
2022-08-18T20:40:55.374Z,17.84
2022-08-18T20:43:59.819Z,17.80
2022-08-18T20:47:04.250Z,17.69
2022-08-18T20:50:26.338Z,17.71
2022-08-18T20:53:49.876Z,17.69
2022-08-18T20:56:53.392Z,17.69
2022-08-18T21:00:02.075Z,17.69
2022-08-18T21:03:07.411Z,17.61
2022-08-18T21:06:08.812Z,17.61
2022-08-18T21:09:10.530Z,17.63
2022-08-18T21:12:14.630Z,17.63
2022-08-18T21:15:16.109Z,17.63
2022-08-18T21:18:18.120Z,17.61
2022-08-18T21:21:26.849Z,17.60
2022-08-18T21:24:34.558Z,17.57
2022-08-18T21:27:36.098Z,17.52
2022-08-18T21:30:38.002Z,17.46
2022-08-18T21:33:39.778Z,17.45
2022-08-18T21:36:53.970Z,17.45
2022-08-18T21:39:56.556Z,17.50
2022-08-18T21:42:59.455Z,17.48
2022-08-18T21:46:00.820Z,17.46
2022-08-18T21:49:02.516Z,17.47
2022-08-18T21:52:04.027Z,17.44
2022-08-18T21:55:07.369Z,17.42
2022-08-18T21:58:14.298Z,17.39
2022-08-18T22:01:18.893Z,17.39
2022-08-18T22:04:29.360Z,17.37
2022-08-18T22:07:35.280Z,17.42
2022-08-18T22:10:58.614Z,17.45
2022-08-18T22:14:21.069Z,17.42
2022-08-18T22:17:25.421Z,17.40
2022-08-18T22:20:32.773Z,17.37
2022-08-18T22:23:58.830Z,17.34
2022-08-18T22:27:06.906Z,17.24
2022-08-18T22:30:08.422Z,17.22
2022-08-18T22:33:09.762Z,17.15
2022-08-18T22:36:11.462Z,17.16
2022-08-18T22:39:13.301Z,17.19
2022-08-18T22:42:15.522Z,17.22
2022-08-18T22:45:16.856Z,17.25
2022-08-18T22:48:18.220Z,17.26
2022-08-18T22:51:20.731Z,17.26
2022-08-18T22:54:22.303Z,17.26
2022-08-18T22:57:23.824Z,17.24
2022-08-18T23:00:25.496Z,17.25
2022-08-18T23:03:27.040Z,17.24
2022-08-18T23:06:31.045Z,17.21
2022-08-18T23:09:33.206Z,17.19
2022-08-18T23:12:34.580Z,17.19
2022-08-18T23:15:48.144Z,17.18
2022-08-18T23:18:49.695Z,17.18
2022-08-18T23:21:52.188Z,17.18
2022-08-18T23:24:53.525Z,17.17
2022-08-18T23:27:55.352Z,17.15
2022-08-18T23:30:56.771Z,17.12
2022-08-18T23:33:58.879Z,17.11
2022-08-18T23:37:03.527Z,17.09
2022-08-18T23:40:05.198Z,17.09
2022-08-18T23:43:09.558Z,17.08
2022-08-18T23:46:17.995Z,17.05
2022-08-18T23:49:19.515Z,17.05
2022-08-18T23:52:21.413Z,17.02
2022-08-18T23:55:22.768Z,17.02
2022-08-18T23:58:24.193Z,17.03
